createdAt,value
2019-01-18T00:00:49.961Z,98400.53
2019-01-18T00:03:21.577Z,98403.50
2019-01-18T00:05:53.799Z,98405.63
2019-01-18T00:08:25.308Z,98393.84
2019-01-18T00:10:57.004Z,98396.66
2019-01-18T00:13:28.804Z,98388.28
2019-01-18T00:16:00.831Z,98387.21
2019-01-18T00:18:33.059Z,98384.84
2019-01-18T00:21:07.449Z,98388.91
2019-01-18T00:23:39.694Z,98388.41
2019-01-18T00:26:11.303Z,98389.52
2019-01-18T00:28:43.285Z,98383.70
2019-01-18T00:31:15.118Z,98382.29
2019-01-18T00:33:47.038Z,98382.31
2019-01-18T00:36:19.275Z,98374.17
2019-01-18T00:38:51.033Z,98384.84
2019-01-18T00:41:23.046Z,98382.19
2019-01-18T00:43:55.481Z,98377.32
2019-01-18T00:46:27.717Z,98380.15
2019-01-18T00:48:59.801Z,98387.27
2019-01-18T00:51:31.789Z,98385.45
2019-01-18T00:54:03.609Z,98388.34
2019-01-18T00:56:35.403Z,98382.02
2019-01-18T00:59:07.203Z,98387.22
2019-01-18T01:01:39.008Z,98387.61
2019-01-18T01:04:10.841Z,98384.17
2019-01-18T01:06:42.389Z,98385.45
2019-01-18T01:09:14.043Z,98386.59
2019-01-18T01:11:45.757Z,98386.92
2019-01-18T01:14:17.385Z,98390.20
2019-01-18T01:16:49.078Z,98382.52
2019-01-18T01:19:20.663Z,98382.19
2019-01-18T01:21:52.267Z,98376.70
2019-01-18T01:24:23.936Z,98380.15
2019-01-18T01:26:55.563Z,98378.39
2019-01-18T01:29:27.428Z,98377.30
2019-01-18T01:31:59.040Z,98376.47
2019-01-18T01:34:30.656Z,98374.72
2019-01-18T01:37:02.306Z,98358.72
2019-01-18T01:39:34.239Z,98363.17
2019-01-18T01:42:06.148Z,98360.44
2019-01-18T01:44:37.675Z,98363.98
2019-01-18T01:47:09.478Z,98357.64
2019-01-18T01:49:41.158Z,98356.13
2019-01-18T01:52:12.898Z,98340.56
2019-01-18T01:54:44.519Z,98345.97
2019-01-18T01:57:16.227Z,98350.30
2019-01-18T01:59:49.907Z,98349.75
2019-01-18T02:02:20.904Z,98354.31
2019-01-18T02:04:52.449Z,98353.61
2019-01-18T02:07:24.689Z,98350.88
2019-01-18T02:09:56.212Z,98358.62
2019-01-18T02:12:27.948Z,98348.84
2019-01-18T02:14:59.663Z,98344.34
2019-01-18T02:17:31.340Z,98332.02
2019-01-18T02:20:02.866Z,98341.50
2019-01-18T02:22:34.479Z,98340.20
2019-01-18T02:25:06.295Z,98342.70
2019-01-18T02:27:37.927Z,98335.38
2019-01-18T02:30:13.984Z,98324.41
2019-01-18T02:32:45.674Z,98320.84
2019-01-18T02:35:17.560Z,98320.16
2019-01-18T02:37:49.233Z,98316.94
2019-01-18T02:40:21.073Z,98313.98
2019-01-18T02:42:52.905Z,98315.79
2019-01-18T02:45:25.357Z,98308.40
2019-01-18T02:47:57.076Z,98308.66
2019-01-18T02:50:28.849Z,98313.36
2019-01-18T02:53:00.322Z,98302.16
2019-01-18T02:55:32.029Z,98294.63
2019-01-18T02:58:03.746Z,98292.41
2019-01-18T03:00:35.290Z,98295.39
2019-01-18T03:03:07.297Z,98290.95
2019-01-18T03:05:38.883Z,98291.37
2019-01-18T03:08:10.450Z,98287.89
2019-01-18T03:10:42.090Z,98283.06
2019-01-18T03:13:13.684Z,98275.75
2019-01-18T03:15:45.277Z,98280.95
2019-01-18T03:18:16.813Z,98279.61
2019-01-18T03:20:48.503Z,98278.30
2019-01-18T03:23:20.170Z,98272.73
2019-01-18T03:25:52.071Z,98261.83
2019-01-18T03:28:24.420Z,98263.91
2019-01-18T03:30:56.329Z,98262.34
2019-01-18T03:33:28.655Z,98266.59
2019-01-18T03:36:00.255Z,98254.81
2019-01-18T03:38:32.546Z,98247.66
2019-01-18T03:41:04.795Z,98253.31
2019-01-18T03:43:36.439Z,98252.94
2019-01-18T03:46:08.245Z,98253.66
2019-01-18T03:48:39.722Z,98254.92
2019-01-18T03:51:11.242Z,98254.16
2019-01-18T03:53:42.904Z,98252.05
2019-01-18T03:56:14.703Z,98252.36
2019-01-18T03:58:46.255Z,98246.80
2019-01-18T04:01:17.978Z,98247.14
2019-01-18T04:03:49.573Z,98242.73
2019-01-18T04:06:21.336Z,98242.27
2019-01-18T04:08:52.891Z,98245.70
2019-01-18T04:11:24.659Z,98233.93
2019-01-18T04:13:56.714Z,98237.45
2019-01-18T04:16:28.612Z,98234.71
2019-01-18T04:19:00.181Z,98233.17
2019-01-18T04:21:31.741Z,98238.42
2019-01-18T04:24:03.607Z,98240.45
2019-01-18T04:26:35.208Z,98237.78
2019-01-18T04:29:06.995Z,98236.86
2019-01-18T04:31:38.608Z,98236.52
2019-01-18T04:34:10.198Z,98235.50
2019-01-18T04:36:41.953Z,98245.77
2019-01-18T04:39:13.526Z,98238.45
2019-01-18T04:41:45.648Z,98232.20
2019-01-18T04:44:17.255Z,98228.66
2019-01-18T04:46:48.851Z,98235.50
2019-01-18T04:49:20.575Z,98233.77
2019-01-18T04:51:52.156Z,98234.77
2019-01-18T04:54:23.673Z,98236.67
2019-01-18T04:56:55.285Z,98232.91
2019-01-18T04:59:27.067Z,98226.32
2019-01-18T05:01:58.838Z,98224.13
2019-01-18T05:04:32.022Z,98230.05
2019-01-18T05:07:03.625Z,98234.22
2019-01-18T05:09:35.244Z,98234.73
2019-01-18T05:12:06.851Z,98229.66
2019-01-18T05:14:38.376Z,98223.60
2019-01-18T05:17:10.308Z,98223.47
2019-01-18T05:19:41.985Z,98225.16
2019-01-18T05:22:13.688Z,98228.23
2019-01-18T05:24:49.546Z,98226.27
2019-01-18T05:27:18.914Z,98230.47
2019-01-18T05:29:50.761Z,98230.67
2019-01-18T05:32:22.669Z,98236.81
2019-01-18T05:34:54.271Z,98232.11
2019-01-18T05:37:25.886Z,98229.84
2019-01-18T05:39:57.571Z,98230.33
2019-01-18T05:42:29.037Z,98235.66
2019-01-18T05:45:00.985Z,98233.24
2019-01-18T05:47:32.745Z,98237.53
2019-01-18T05:50:05.315Z,98238.88
2019-01-18T05:52:37.208Z,98239.07
2019-01-18T05:55:08.932Z,98239.13
2019-01-18T05:57:40.786Z,98243.83
2019-01-18T06:00:26.939Z,98238.10
2019-01-18T06:02:58.808Z,98234.05
2019-01-18T06:05:31.988Z,98242.62
2019-01-18T06:08:03.637Z,98236.55
2019-01-18T06:10:35.282Z,98241.78
2019-01-18T06:13:07.237Z,98233.36
2019-01-18T06:15:40.479Z,98231.16
2019-01-18T06:18:12.507Z,98220.39
2019-01-18T06:20:44.279Z,98217.55
2019-01-18T06:23:16.953Z,98226.13
2019-01-18T06:25:48.666Z,98223.06
2019-01-18T06:28:20.544Z,98221.03
2019-01-18T06:30:52.335Z,98222.75
2019-01-18T06:33:24.048Z,98220.92
2019-01-18T06:35:55.942Z,98229.31
2019-01-18T06:38:27.809Z,98230.04
2019-01-18T06:41:07.813Z,98220.73
2019-01-18T06:43:39.507Z,98217.77
2019-01-18T06:46:11.206Z,98221.03
2019-01-18T06:48:43.434Z,98221.64
2019-01-18T06:51:15.363Z,98223.89
2019-01-18T06:53:47.251Z,98221.05
2019-01-18T06:56:19.058Z,98228.86
2019-01-18T06:58:50.892Z,98225.94
2019-01-18T07:01:22.634Z,98230.95
2019-01-18T07:03:54.313Z,98226.70
2019-01-18T07:06:26.467Z,98232.23
2019-01-18T07:08:58.375Z,98224.95
2019-01-18T07:11:30.926Z,98230.47
2019-01-18T07:14:05.808Z,98242.23
2019-01-18T07:16:38.506Z,98238.59
2019-01-18T07:19:10.509Z,98240.00
2019-01-18T07:21:43.474Z,98243.80
2019-01-18T07:24:15.218Z,98240.16
2019-01-18T07:26:47.184Z,98240.87
2019-01-18T07:29:19.156Z,98243.86
2019-01-18T07:31:50.805Z,98234.55
2019-01-18T07:34:23.109Z,98237.63
2019-01-18T07:36:55.339Z,98242.44
2019-01-18T07:39:27.295Z,98244.91
2019-01-18T07:41:59.009Z,98253.94
2019-01-18T07:44:30.810Z,98259.98
2019-01-18T07:47:02.974Z,98263.08
2019-01-18T07:49:35.030Z,98267.61
2019-01-18T07:52:08.882Z,98260.96
2019-01-18T07:54:40.881Z,98265.36
2019-01-18T07:57:12.712Z,98267.70
2019-01-18T07:59:44.833Z,98269.47
2019-01-18T08:02:16.928Z,98279.88
2019-01-18T08:04:49.138Z,98289.83
2019-01-18T08:07:21.228Z,98295.02
2019-01-18T08:09:52.915Z,98296.36
2019-01-18T08:12:25.278Z,98298.23
2019-01-18T08:14:57.393Z,98304.97
2019-01-18T08:17:30.444Z,98303.20
2019-01-18T08:20:02.767Z,98309.62
2019-01-18T08:22:34.680Z,98306.16
2019-01-18T08:25:07.740Z,98297.54
2019-01-18T08:27:39.447Z,98302.50
2019-01-18T08:30:16.758Z,98303.57
2019-01-18T08:32:49.198Z,98300.62
2019-01-18T08:35:22.704Z,98296.58
2019-01-18T08:37:54.607Z,98290.38
2019-01-18T08:40:51.450Z,98296.55
2019-01-18T08:43:23.198Z,98295.84
2019-01-18T08:45:58.580Z,98293.97
2019-01-18T08:48:30.764Z,98294.19
2019-01-18T08:51:03.896Z,98296.53
2019-01-18T08:53:35.634Z,98303.21
2019-01-18T08:56:09.124Z,98304.53
2019-01-18T08:58:40.860Z,98306.41
2019-01-18T09:01:12.709Z,98304.19
2019-01-18T09:03:44.527Z,98316.50
2019-01-18T09:06:16.348Z,98318.25
2019-01-18T09:08:48.395Z,98321.48
2019-01-18T09:11:20.878Z,98313.16
2019-01-18T09:13:52.666Z,98321.03
2019-01-18T09:16:24.642Z,98324.12
2019-01-18T09:18:57.110Z,98331.48
2019-01-18T09:21:29.651Z,98332.20
2019-01-18T09:24:02.410Z,98326.38
2019-01-18T09:26:34.746Z,98335.77
2019-01-18T09:29:07.042Z,98327.82
2019-01-18T09:31:42.425Z,98326.27
2019-01-18T09:34:12.634Z,98336.95
2019-01-18T09:36:44.399Z,98336.00
2019-01-18T09:39:20.645Z,98336.20
2019-01-18T09:41:53.711Z,98342.26
2019-01-18T09:44:25.619Z,98328.04
2019-01-18T09:46:57.484Z,98334.08
2019-01-18T09:49:29.223Z,98327.18
2019-01-18T09:52:01.466Z,98343.56
2019-01-18T09:54:33.470Z,98340.75
2019-01-18T09:57:05.781Z,98343.49
2019-01-18T09:59:37.582Z,98335.30
2019-01-18T10:02:09.838Z,98340.41
2019-01-18T10:04:41.707Z,98347.64
2019-01-18T10:07:13.700Z,98336.58
2019-01-18T10:09:45.705Z,98330.77
2019-01-18T10:12:17.694Z,98328.88
2019-01-18T10:14:49.741Z,98328.39
2019-01-18T10:17:22.045Z,98332.65
2019-01-18T10:19:53.552Z,98322.67
2019-01-18T10:22:26.299Z,98327.33
2019-01-18T10:25:00.248Z,98317.45
2019-01-18T10:27:32.499Z,98323.27
2019-01-18T10:30:04.287Z,98320.15
2019-01-18T10:32:37.079Z,98314.22
2019-01-18T10:35:09.033Z,98316.36
2019-01-18T10:37:40.727Z,98311.59
2019-01-18T10:40:13.746Z,98313.17
2019-01-18T10:42:46.581Z,98324.31
2019-01-18T10:45:18.649Z,98319.45
2019-01-18T10:47:50.956Z,98312.91
2019-01-18T10:50:28.831Z,98310.42
2019-01-18T10:53:00.637Z,98307.08
2019-01-18T10:55:32.505Z,98294.47
2019-01-18T10:58:04.428Z,98303.66
2019-01-18T11:00:37.507Z,98301.37
2019-01-18T11:03:09.307Z,98295.87
2019-01-18T11:05:41.433Z,98283.36
2019-01-18T11:08:17.360Z,98287.76
2019-01-18T11:10:46.666Z,98281.25
2019-01-18T11:13:18.366Z,98286.31
2019-01-18T11:15:51.576Z,98283.36
2019-01-18T11:18:23.986Z,98277.83
2019-01-18T11:21:06.305Z,98274.24
2019-01-18T11:23:38.210Z,98279.20
2019-01-18T11:26:10.190Z,98280.88
2019-01-18T11:28:43.232Z,98277.36
2019-01-18T11:31:15.231Z,98272.36
2019-01-18T11:33:47.120Z,98272.70
2019-01-18T11:36:18.991Z,98274.91
2019-01-18T11:38:50.753Z,98270.88
2019-01-18T11:41:22.571Z,98271.02
2019-01-18T11:43:54.553Z,98274.71
2019-01-18T11:46:26.395Z,98268.17
2019-01-18T11:48:58.333Z,98263.88
2019-01-18T11:51:31.212Z,98255.34
2019-01-18T11:54:03.185Z,98258.52
2019-01-18T11:56:35.623Z,98255.70
2019-01-18T11:59:07.558Z,98251.07
2019-01-18T12:01:39.707Z,98259.71
2019-01-18T12:04:11.626Z,98249.02
2019-01-18T12:06:43.793Z,98254.16
2019-01-18T12:09:15.768Z,98249.25
2019-01-18T12:11:48.367Z,98243.97
2019-01-18T12:14:20.189Z,98247.73
2019-01-18T12:16:51.969Z,98250.03
2019-01-18T12:19:23.846Z,98254.84
2019-01-18T12:21:55.505Z,98260.58
2019-01-18T12:24:27.332Z,98275.32
2019-01-18T12:26:59.394Z,98257.41
2019-01-18T12:29:31.931Z,98251.56
2019-01-18T12:32:03.739Z,98257.86
2019-01-18T12:34:35.764Z,98257.33
2019-01-18T12:37:07.608Z,98254.87
2019-01-18T12:39:39.463Z,98265.56
2019-01-18T12:42:11.377Z,98264.55
2019-01-18T12:44:43.561Z,98257.09
2019-01-18T12:47:15.968Z,98251.39
2019-01-18T12:49:49.248Z,98252.86
2019-01-18T12:52:21.239Z,98260.84
2019-01-18T12:54:52.859Z,98264.70
2019-01-18T12:57:25.119Z,98256.48
2019-01-18T12:59:58.518Z,98259.34
2019-01-18T13:02:35.298Z,98261.77
2019-01-18T13:05:03.812Z,98257.24
2019-01-18T13:07:35.594Z,98263.69
2019-01-18T13:10:12.198Z,98256.21
2019-01-18T13:12:42.580Z,98257.61
2019-01-18T13:15:41.323Z,98266.81
2019-01-18T13:18:13.175Z,98258.08
2019-01-18T13:20:44.976Z,98260.33
2019-01-18T13:23:17.273Z,98250.91
2019-01-18T13:25:49.282Z,98255.63
2019-01-18T13:28:21.225Z,98263.71
2019-01-18T13:30:55.196Z,98258.39
2019-01-18T13:33:27.758Z,98256.80
2019-01-18T13:36:01.075Z,98267.55
2019-01-18T13:38:33.136Z,98264.23
2019-01-18T13:41:06.035Z,98273.72
2019-01-18T13:43:38.623Z,98263.26
2019-01-18T13:46:12.045Z,98271.34
2019-01-18T13:48:44.342Z,98262.27
2019-01-18T13:51:19.991Z,98256.09
2019-01-18T13:53:53.136Z,98253.16
2019-01-18T13:56:25.362Z,98253.55
2019-01-18T13:58:57.587Z,98252.00
2019-01-18T14:01:29.519Z,98255.23
2019-01-18T14:04:01.737Z,98266.58
2019-01-18T14:06:33.806Z,98256.02
2019-01-18T14:09:08.780Z,98256.55
2019-01-18T14:11:40.972Z,98257.17
2019-01-18T14:14:12.777Z,98266.48
2019-01-18T14:16:44.915Z,98257.03
2019-01-18T14:19:17.400Z,98268.42
2019-01-18T14:21:49.313Z,98260.21
2019-01-18T14:24:32.311Z,98259.94
2019-01-18T14:27:07.266Z,98255.80
2019-01-18T14:29:42.499Z,98270.63
2019-01-18T14:32:23.429Z,98268.88
2019-01-18T14:35:00.213Z,98280.38
2019-01-18T14:37:35.862Z,98270.69
2019-01-18T14:40:17.772Z,98284.16
2019-01-18T14:42:50.522Z,98273.06
2019-01-18T14:45:29.879Z,98284.87
2019-01-18T14:48:01.671Z,98287.10
2019-01-18T14:50:33.626Z,98285.34
2019-01-18T14:53:05.660Z,98285.36
2019-01-18T14:55:37.902Z,98279.47
2019-01-18T14:58:13.561Z,98277.05
2019-01-18T15:00:46.473Z,98288.91
2019-01-18T15:03:18.521Z,98284.81
2019-01-18T15:05:50.562Z,98287.88
2019-01-18T15:08:24.272Z,98275.53
2019-01-18T15:10:56.447Z,98287.83
2019-01-18T15:13:28.458Z,98284.92
2019-01-18T15:16:00.302Z,98286.45
2019-01-18T15:18:32.734Z,98300.89
2019-01-18T15:21:05.029Z,98310.30
2019-01-18T15:23:36.965Z,98298.36
2019-01-18T15:26:09.227Z,98297.00
2019-01-18T15:28:41.211Z,98301.89
2019-01-18T15:31:13.385Z,98302.73
2019-01-18T15:33:46.109Z,98308.64
2019-01-18T15:36:19.408Z,98307.53
2019-01-18T15:38:51.479Z,98316.67
2019-01-18T15:41:24.533Z,98317.39
2019-01-18T15:43:57.097Z,98318.64
2019-01-18T15:46:29.160Z,98324.34
2019-01-18T15:49:01.289Z,98318.75
2019-01-18T15:51:33.111Z,98308.54
2019-01-18T15:54:05.362Z,98321.47
2019-01-18T15:56:38.005Z,98309.53
2019-01-18T15:59:09.953Z,98307.89
2019-01-18T16:01:42.927Z,98303.69
2019-01-18T16:04:14.608Z,98316.27
2019-01-18T16:06:47.145Z,98308.81
2019-01-18T16:09:19.309Z,98319.28
2019-01-18T16:11:53.204Z,98319.47
2019-01-18T16:14:25.587Z,98323.11
2019-01-18T16:17:20.267Z,98327.05
2019-01-18T16:19:54.339Z,98324.66
2019-01-18T16:22:27.317Z,98337.35
2019-01-18T16:25:00.183Z,98327.90
2019-01-18T16:27:32.230Z,98330.80
2019-01-18T16:30:04.106Z,98332.45
2019-01-18T16:32:35.950Z,98328.32
2019-01-18T16:35:09.683Z,98336.41
2019-01-18T16:37:42.144Z,98334.70
2019-01-18T16:40:26.888Z,98333.06
2019-01-18T16:43:06.070Z,98334.39
2019-01-18T16:45:38.592Z,98339.53
2019-01-18T16:48:10.811Z,98344.10
2019-01-18T16:50:43.192Z,98345.09
2019-01-18T16:53:14.991Z,98342.92
2019-01-18T16:55:46.675Z,98346.55
2019-01-18T16:58:20.397Z,98346.01
2019-01-18T17:00:54.957Z,98348.30
2019-01-18T17:03:30.540Z,98351.84
2019-01-18T17:06:01.310Z,98351.76
2019-01-18T17:08:33.654Z,98349.79
2019-01-18T17:11:07.002Z,98354.86
2019-01-18T17:13:44.116Z,98349.61
2019-01-18T17:16:16.607Z,98358.84
2019-01-18T17:18:49.015Z,98363.63
2019-01-18T17:21:20.912Z,98367.12
2019-01-18T17:23:52.591Z,98371.95
2019-01-18T17:26:24.438Z,98370.95
2019-01-18T17:28:56.255Z,98374.02
2019-01-18T17:31:28.157Z,98375.67
2019-01-18T17:34:01.413Z,98376.52
2019-01-18T17:36:55.133Z,98378.55
2019-01-18T17:40:29.830Z,98391.95
2019-01-18T17:43:29.604Z,98394.17
2019-01-18T17:47:04.511Z,98401.64
2019-01-18T17:50:40.354Z,98410.38
2019-01-18T17:54:05.976Z,98409.64
2019-01-18T17:57:29.809Z,98404.55
2019-01-18T18:01:06.880Z,98409.01
2019-01-18T18:04:33.081Z,98409.34
2019-01-18T18:07:45.999Z,98416.88
2019-01-18T18:11:31.785Z,98414.58
2019-01-18T18:14:49.412Z,98414.70
2019-01-18T18:17:56.453Z,98422.00
2019-01-18T18:21:22.213Z,98423.63
2019-01-18T18:24:33.166Z,98426.64
2019-01-18T18:27:59.832Z,98425.05
2019-01-18T18:31:16.737Z,98426.97
2019-01-18T18:34:48.524Z,98433.31
2019-01-18T18:38:06.846Z,98435.88
2019-01-18T18:41:09.162Z,98438.02
2019-01-18T18:44:42.622Z,98435.36
2019-01-18T18:48:02.414Z,98437.94
2019-01-18T18:51:34.216Z,98448.34
2019-01-18T18:55:16.770Z,98441.20
2019-01-18T18:58:49.989Z,98433.13
2019-01-18T19:02:31.415Z,98437.31
2019-01-18T19:06:07.184Z,98432.19
2019-01-18T19:09:43.932Z,98431.69
2019-01-18T19:12:46.139Z,98433.20
2019-01-18T19:16:19.054Z,98434.73
2019-01-18T19:19:44.177Z,98430.97
2019-01-18T19:23:04.610Z,98437.03
2019-01-18T19:26:20.306Z,98439.72
2019-01-18T19:29:55.989Z,98442.20
2019-01-18T19:33:22.851Z,98447.47
2019-01-18T19:36:59.960Z,98458.88
2019-01-18T19:40:26.584Z,98455.28
2019-01-18T19:44:09.381Z,98455.77
2019-01-18T19:47:16.124Z,98463.64
2019-01-18T19:50:33.273Z,98467.95
2019-01-18T19:54:11.570Z,98469.80
2019-01-18T19:57:57.948Z,98465.92
2019-01-18T20:01:06.000Z,98466.14
2019-01-18T20:04:19.347Z,98465.17
2019-01-18T20:08:04.623Z,98468.66
2019-01-18T20:11:22.415Z,98468.33
2019-01-18T20:15:09.061Z,98469.08
2019-01-18T20:18:59.252Z,98468.33
2019-01-18T20:22:29.487Z,98466.91
2019-01-18T20:26:04.000Z,98466.22
2019-01-18T20:29:28.036Z,98470.43
2019-01-18T20:32:46.229Z,98469.72
2019-01-18T20:36:20.639Z,98477.03
2019-01-18T20:39:53.058Z,98481.18
2019-01-18T20:43:43.923Z,98485.31
2019-01-18T20:46:55.469Z,98484.66
2019-01-18T20:50:24.199Z,98486.98
2019-01-18T20:53:50.263Z,98489.08
2019-01-18T20:56:57.281Z,98490.91
2019-01-18T21:00:23.133Z,98495.30
2019-01-18T21:04:00.776Z,98496.96
2019-01-18T21:07:22.024Z,98503.44
2019-01-18T21:10:51.794Z,98501.34
2019-01-18T21:14:10.450Z,98500.87
2019-01-18T21:17:35.398Z,98502.11
2019-01-18T21:21:05.815Z,98496.44
2019-01-18T21:24:22.430Z,98503.80
2019-01-18T21:27:18.053Z,98500.49
2019-01-18T21:30:35.775Z,98498.55
2019-01-18T21:34:07.628Z,98504.16
2019-01-18T21:37:41.775Z,98505.66
2019-01-18T21:41:12.652Z,98510.94
2019-01-18T21:44:42.876Z,98516.47
2019-01-18T21:48:19.315Z,98525.16
2019-01-18T21:51:52.390Z,98525.30
2019-01-18T21:55:20.077Z,98530.28
2019-01-18T21:58:55.313Z,98532.76
2019-01-18T22:02:47.060Z,98535.43
2019-01-18T22:05:53.264Z,98532.20
2019-01-18T22:09:15.340Z,98525.81
2019-01-18T22:12:55.727Z,98526.62
2019-01-18T22:16:27.862Z,98521.08
2019-01-18T22:20:08.777Z,98524.16
2019-01-18T22:23:14.479Z,98522.30
2019-01-18T22:26:32.260Z,98536.02
2019-01-18T22:29:39.411Z,98541.84
2019-01-18T22:33:10.965Z,98532.93
2019-01-18T22:36:33.718Z,98545.23
2019-01-18T22:39:43.094Z,98536.55
2019-01-18T22:42:41.524Z,98534.14
2019-01-18T22:45:48.659Z,98539.91
2019-01-18T22:49:28.844Z,98543.93
2019-01-18T22:52:55.462Z,98537.56
2019-01-18T22:56:04.626Z,98537.06
2019-01-18T22:59:39.722Z,98540.48
2019-01-18T23:03:18.262Z,98540.38
2019-01-18T23:07:00.134Z,98541.80
2019-01-18T23:10:33.352Z,98548.15
2019-01-18T23:14:11.208Z,98547.95
2019-01-18T23:17:51.170Z,98541.73
2019-01-18T23:21:22.692Z,98541.02
2019-01-18T23:24:33.367Z,98547.23
2019-01-18T23:28:21.958Z,98550.07
2019-01-18T23:31:32.524Z,98546.42
2019-01-18T23:34:31.207Z,98538.39
2019-01-18T23:37:57.498Z,98547.66
2019-01-18T23:41:26.660Z,98540.38
2019-01-18T23:44:56.537Z,98540.09
2019-01-18T23:48:14.542Z,98542.77
2019-01-18T23:52:07.094Z,98542.42
2019-01-18T23:55:35.144Z,98542.30
2019-01-18T23:58:54.993Z,98537.11
